sensor_id;sensor_type;location;lat;lon;timestamp;temperature;humidity
12130;DHT22;6128;59.340;18.040;2023-04-16T00:00:37;3.10;99.90
12130;DHT22;6128;59.340;18.040;2023-04-16T00:03:05;3.00;99.90
12130;DHT22;6128;59.340;18.040;2023-04-16T00:05:33;3.00;99.90
12130;DHT22;6128;59.340;18.040;2023-04-16T00:08:00;2.90;99.90
12130;DHT22;6128;59.340;18.040;2023-04-16T00:10:28;2.90;99.90
12130;DHT22;6128;59.340;18.040;2023-04-16T00:12:55;2.80;99.90
12130;DHT22;6128;59.340;18.040;2023-04-16T00:15:22;2.80;99.90
12130;DHT22;6128;59.340;18.040;2023-04-16T00:17:49;2.80;99.90
12130;DHT22;6128;59.340;18.040;2023-04-16T00:20:16;2.70;99.90
12130;DHT22;6128;59.340;18.040;2023-04-16T00:22:46;2.70;99.90
12130;DHT22;6128;59.340;18.040;2023-04-16T00:25:13;2.70;99.90
12130;DHT22;6128;59.340;18.040;2023-04-16T00:27:40;2.70;99.90
12130;DHT22;6128;59.340;18.040;2023-04-16T00:30:08;2.60;99.90
12130;DHT22;6128;59.340;18.040;2023-04-16T00:32:35;2.70;99.90
12130;DHT22;6128;59.340;18.040;2023-04-16T00:35:02;2.60;99.90
12130;DHT22;6128;59.340;18.040;2023-04-16T00:37:29;2.60;99.90
12130;DHT22;6128;59.340;18.040;2023-04-16T00:39:58;2.50;99.90
12130;DHT22;6128;59.340;18.040;2023-04-16T00:42:25;2.50;99.90
12130;DHT22;6128;59.340;18.040;2023-04-16T00:44:52;2.40;99.90
12130;DHT22;6128;59.340;18.040;2023-04-16T00:47:19;2.40;99.90
12130;DHT22;6128;59.340;18.040;2023-04-16T00:49:47;2.40;99.90
12130;DHT22;6128;59.340;18.040;2023-04-16T00:52:14;2.30;99.90
12130;DHT22;6128;59.340;18.040;2023-04-16T00:54:42;2.30;99.90
12130;DHT22;6128;59.340;18.040;2023-04-16T00:57:13;2.20;99.90
12130;DHT22;6128;59.340;18.040;2023-04-16T00:59:40;2.20;99.90
12130;DHT22;6128;59.340;18.040;2023-04-16T01:02:07;2.20;99.90
12130;DHT22;6128;59.340;18.040;2023-04-16T01:04:35;2.10;99.90
12130;DHT22;6128;59.340;18.040;2023-04-16T01:07:02;2.10;99.90
12130;DHT22;6128;59.340;18.040;2023-04-16T01:09:29;2.10;99.90
12130;DHT22;6128;59.340;18.040;2023-04-16T01:11:57;2.10;99.90
12130;DHT22;6128;59.340;18.040;2023-04-16T01:14:25;2.10;99.90
12130;DHT22;6128;59.340;18.040;2023-04-16T01:16:52;2.00;99.90
12130;DHT22;6128;59.340;18.040;2023-04-16T01:19:19;2.00;99.90
12130;DHT22;6128;59.340;18.040;2023-04-16T01:21:48;1.90;99.90
12130;DHT22;6128;59.340;18.040;2023-04-16T01:24:15;1.90;99.90
12130;DHT22;6128;59.340;18.040;2023-04-16T01:26:42;1.80;99.90
12130;DHT22;6128;59.340;18.040;2023-04-16T01:29:09;1.80;99.90
12130;DHT22;6128;59.340;18.040;2023-04-16T01:31:36;1.70;99.90
12130;DHT22;6128;59.340;18.040;2023-04-16T01:34:03;1.70;99.90
12130;DHT22;6128;59.340;18.040;2023-04-16T01:36:30;1.70;99.90
12130;DHT22;6128;59.340;18.040;2023-04-16T01:39:01;1.60;99.90
12130;DHT22;6128;59.340;18.040;2023-04-16T01:41:30;1.60;99.90
12130;DHT22;6128;59.340;18.040;2023-04-16T01:43:57;1.60;99.90
12130;DHT22;6128;59.340;18.040;2023-04-16T01:46:26;1.60;99.90
12130;DHT22;6128;59.340;18.040;2023-04-16T01:48:54;1.50;99.90
12130;DHT22;6128;59.340;18.040;2023-04-16T01:51:21;1.50;99.90
12130;DHT22;6128;59.340;18.040;2023-04-16T01:53:49;1.50;99.90
12130;DHT22;6128;59.340;18.040;2023-04-16T01:56:17;1.40;99.90
12130;DHT22;6128;59.340;18.040;2023-04-16T01:58:44;1.40;99.90
12130;DHT22;6128;59.340;18.040;2023-04-16T02:01:12;1.40;99.90
12130;DHT22;6128;59.340;18.040;2023-04-16T02:03:39;1.40;99.90
12130;DHT22;6128;59.340;18.040;2023-04-16T02:06:07;1.40;99.90
12130;DHT22;6128;59.340;18.040;2023-04-16T02:08:34;1.50;99.90
12130;DHT22;6128;59.340;18.040;2023-04-16T02:11:01;1.40;99.90
12130;DHT22;6128;59.340;18.040;2023-04-16T02:13:29;1.40;99.90
12130;DHT22;6128;59.340;18.040;2023-04-16T02:15:56;1.40;99.90
12130;DHT22;6128;59.340;18.040;2023-04-16T02:18:23;1.40;99.90
12130;DHT22;6128;59.340;18.040;2023-04-16T02:20:50;1.40;99.90
12130;DHT22;6128;59.340;18.040;2023-04-16T02:23:18;1.30;99.90
12130;DHT22;6128;59.340;18.040;2023-04-16T02:25:46;1.30;99.90
12130;DHT22;6128;59.340;18.040;2023-04-16T02:28:14;1.30;99.90
12130;DHT22;6128;59.340;18.040;2023-04-16T02:30:43;1.30;99.90
12130;DHT22;6128;59.340;18.040;2023-04-16T02:33:11;1.30;99.90
12130;DHT22;6128;59.340;18.040;2023-04-16T02:35:38;1.30;99.90
12130;DHT22;6128;59.340;18.040;2023-04-16T02:38:06;1.30;99.90
12130;DHT22;6128;59.340;18.040;2023-04-16T02:40:34;1.30;99.90
12130;DHT22;6128;59.340;18.040;2023-04-16T02:43:01;1.30;99.90
12130;DHT22;6128;59.340;18.040;2023-04-16T02:45:28;1.30;99.90
12130;DHT22;6128;59.340;18.040;2023-04-16T02:47:57;1.30;99.90
12130;DHT22;6128;59.340;18.040;2023-04-16T02:50:25;1.30;99.90
12130;DHT22;6128;59.340;18.040;2023-04-16T02:52:52;1.20;99.90
12130;DHT22;6128;59.340;18.040;2023-04-16T02:55:20;1.20;99.90
12130;DHT22;6128;59.340;18.040;2023-04-16T02:57:47;1.20;99.90
12130;DHT22;6128;59.340;18.040;2023-04-16T03:00:14;1.20;99.90
12130;DHT22;6128;59.340;18.040;2023-04-16T03:02:41;1.20;99.90
12130;DHT22;6128;59.340;18.040;2023-04-16T03:05:10;1.10;99.90
12130;DHT22;6128;59.340;18.040;2023-04-16T03:07:37;1.20;99.90
12130;DHT22;6128;59.340;18.040;2023-04-16T03:10:06;1.20;99.90
12130;DHT22;6128;59.340;18.040;2023-04-16T03:12:34;1.20;99.90
12130;DHT22;6128;59.340;18.040;2023-04-16T03:15:01;1.20;99.90
12130;DHT22;6128;59.340;18.040;2023-04-16T03:17:29;1.20;99.90
12130;DHT22;6128;59.340;18.040;2023-04-16T03:19:56;1.10;99.90
12130;DHT22;6128;59.340;18.040;2023-04-16T03:22:24;1.10;99.90
12130;DHT22;6128;59.340;18.040;2023-04-16T03:24:51;1.10;99.90
12130;DHT22;6128;59.340;18.040;2023-04-16T03:27:18;1.00;99.90
12130;DHT22;6128;59.340;18.040;2023-04-16T03:29:46;1.00;99.90
12130;DHT22;6128;59.340;18.040;2023-04-16T03:32:13;1.00;99.90
12130;DHT22;6128;59.340;18.040;2023-04-16T03:34:40;1.00;99.90
12130;DHT22;6128;59.340;18.040;2023-04-16T03:37:07;1.00;99.90
12130;DHT22;6128;59.340;18.040;2023-04-16T03:39:37;0.90;99.90
12130;DHT22;6128;59.340;18.040;2023-04-16T03:42:05;0.90;99.90
12130;DHT22;6128;59.340;18.040;2023-04-16T03:44:32;0.90;99.90
12130;DHT22;6128;59.340;18.040;2023-04-16T03:46:59;0.90;99.90
12130;DHT22;6128;59.340;18.040;2023-04-16T03:49:26;0.90;99.90
12130;DHT22;6128;59.340;18.040;2023-04-16T03:51:53;0.90;99.90
12130;DHT22;6128;59.340;18.040;2023-04-16T03:54:20;0.90;99.90
12130;DHT22;6128;59.340;18.040;2023-04-16T03:56:49;0.90;99.90
12130;DHT22;6128;59.340;18.040;2023-04-16T03:59:16;0.80;99.90
12130;DHT22;6128;59.340;18.040;2023-04-16T04:01:44;0.80;99.90
12130;DHT22;6128;59.340;18.040;2023-04-16T04:04:13;0.90;99.90
12130;DHT22;6128;59.340;18.040;2023-04-16T04:06:40;0.90;99.90
12130;DHT22;6128;59.340;18.040;2023-04-16T04:09:07;0.90;99.90
12130;DHT22;6128;59.340;18.040;2023-04-16T04:11:34;0.90;99.90
12130;DHT22;6128;59.340;18.040;2023-04-16T04:14:03;0.90;99.90
12130;DHT22;6128;59.340;18.040;2023-04-16T04:16:30;1.00;99.90
12130;DHT22;6128;59.340;18.040;2023-04-16T04:18:57;1.00;99.90
12130;DHT22;6128;59.340;18.040;2023-04-16T04:21:25;1.00;99.90
12130;DHT22;6128;59.340;18.040;2023-04-16T04:23:53;1.10;99.90
12130;DHT22;6128;59.340;18.040;2023-04-16T04:26:20;1.10;99.90
12130;DHT22;6128;59.340;18.040;2023-04-16T04:28:47;1.00;99.90
12130;DHT22;6128;59.340;18.040;2023-04-16T04:31:15;1.00;99.90
12130;DHT22;6128;59.340;18.040;2023-04-16T04:33:43;1.00;99.90
12130;DHT22;6128;59.340;18.040;2023-04-16T04:36:11;1.10;99.90
12130;DHT22;6128;59.340;18.040;2023-04-16T04:38:38;1.10;99.90
12130;DHT22;6128;59.340;18.040;2023-04-16T04:41:05;1.10;99.90
12130;DHT22;6128;59.340;18.040;2023-04-16T04:43:32;1.10;99.90
12130;DHT22;6128;59.340;18.040;2023-04-16T04:45:59;1.00;99.90
12130;DHT22;6128;59.340;18.040;2023-04-16T04:48:27;1.00;99.90
12130;DHT22;6128;59.340;18.040;2023-04-16T04:50:54;1.10;99.90
12130;DHT22;6128;59.340;18.040;2023-04-16T04:53:21;1.10;99.90
12130;DHT22;6128;59.340;18.040;2023-04-16T04:55:48;1.10;99.90
12130;DHT22;6128;59.340;18.040;2023-04-16T04:58:15;1.10;99.90
12130;DHT22;6128;59.340;18.040;2023-04-16T05:00:42;1.10;99.90
12130;DHT22;6128;59.340;18.040;2023-04-16T05:03:10;1.20;99.90
12130;DHT22;6128;59.340;18.040;2023-04-16T05:05:39;1.30;99.90
12130;DHT22;6128;59.340;18.040;2023-04-16T05:08:07;1.30;99.90
12130;DHT22;6128;59.340;18.040;2023-04-16T05:10:34;1.30;99.90
12130;DHT22;6128;59.340;18.040;2023-04-16T05:13:01;1.30;99.90
12130;DHT22;6128;59.340;18.040;2023-04-16T05:15:28;1.40;99.90
12130;DHT22;6128;59.340;18.040;2023-04-16T05:17:55;1.50;99.90
12130;DHT22;6128;59.340;18.040;2023-04-16T05:20:22;1.50;99.90
12130;DHT22;6128;59.340;18.040;2023-04-16T05:22:51;1.60;99.90
12130;DHT22;6128;59.340;18.040;2023-04-16T05:25:20;1.70;99.90
12130;DHT22;6128;59.340;18.040;2023-04-16T05:27:47;1.70;99.90
12130;DHT22;6128;59.340;18.040;2023-04-16T05:30:14;1.80;99.90
12130;DHT22;6128;59.340;18.040;2023-04-16T05:32:41;1.80;99.90
12130;DHT22;6128;59.340;18.040;2023-04-16T05:35:09;2.00;99.90
12130;DHT22;6128;59.340;18.040;2023-04-16T05:37:36;2.10;99.90
12130;DHT22;6128;59.340;18.040;2023-04-16T05:40:06;2.20;99.90
12130;DHT22;6128;59.340;18.040;2023-04-16T05:42:33;2.20;99.90
12130;DHT22;6128;59.340;18.040;2023-04-16T05:45:01;2.20;99.90
12130;DHT22;6128;59.340;18.040;2023-04-16T05:47:29;2.30;99.90
12130;DHT22;6128;59.340;18.040;2023-04-16T05:49:56;2.50;99.90
12130;DHT22;6128;59.340;18.040;2023-04-16T05:52:23;2.60;99.90
12130;DHT22;6128;59.340;18.040;2023-04-16T05:54:50;2.70;99.90
12130;DHT22;6128;59.340;18.040;2023-04-16T05:57:19;2.80;99.90
12130;DHT22;6128;59.340;18.040;2023-04-16T05:59:46;2.80;99.90
12130;DHT22;6128;59.340;18.040;2023-04-16T06:02:13;2.90;99.90
12130;DHT22;6128;59.340;18.040;2023-04-16T06:04:41;3.00;99.90
12130;DHT22;6128;59.340;18.040;2023-04-16T06:07:08;3.10;99.90
12130;DHT22;6128;59.340;18.040;2023-04-16T06:09:35;3.20;99.90
12130;DHT22;6128;59.340;18.040;2023-04-16T06:12:03;3.30;99.90
12130;DHT22;6128;59.340;18.040;2023-04-16T06:14:32;3.30;99.90
12130;DHT22;6128;59.340;18.040;2023-04-16T06:16:59;3.40;99.90
12130;DHT22;6128;59.340;18.040;2023-04-16T06:19:26;3.50;99.90
12130;DHT22;6128;59.340;18.040;2023-04-16T06:21:53;3.60;99.90
12130;DHT22;6128;59.340;18.040;2023-04-16T06:24:20;3.80;99.90
12130;DHT22;6128;59.340;18.040;2023-04-16T06:26:47;3.90;99.90
12130;DHT22;6128;59.340;18.040;2023-04-16T06:29:14;4.00;99.90
12130;DHT22;6128;59.340;18.040;2023-04-16T06:31:43;4.10;99.90
12130;DHT22;6128;59.340;18.040;2023-04-16T06:34:10;4.30;99.90
12130;DHT22;6128;59.340;18.040;2023-04-16T06:36:37;4.50;99.90
12130;DHT22;6128;59.340;18.040;2023-04-16T06:39:04;5.30;99.90
12130;DHT22;6128;59.340;18.040;2023-04-16T06:41:32;6.50;99.90
12130;DHT22;6128;59.340;18.040;2023-04-16T06:43:59;7.40;99.90
12130;DHT22;6128;59.340;18.040;2023-04-16T06:46:26;8.20;99.90
12130;DHT22;6128;59.340;18.040;2023-04-16T06:48:54;8.70;99.90
12130;DHT22;6128;59.340;18.040;2023-04-16T06:51:21;9.50;99.90
12130;DHT22;6128;59.340;18.040;2023-04-16T06:53:48;10.30;99.90
12130;DHT22;6128;59.340;18.040;2023-04-16T06:56:15;10.90;99.90
12130;DHT22;6128;59.340;18.040;2023-04-16T06:58:42;10.90;99.90
12130;DHT22;6128;59.340;18.040;2023-04-16T07:01:10;10.60;99.90
12130;DHT22;6128;59.340;18.040;2023-04-16T07:03:37;10.50;99.90
12130;DHT22;6128;59.340;18.040;2023-04-16T07:06:05;11.20;99.90
12130;DHT22;6128;59.340;18.040;2023-04-16T07:08:32;11.70;99.90
12130;DHT22;6128;59.340;18.040;2023-04-16T07:10:59;12.20;99.90
12130;DHT22;6128;59.340;18.040;2023-04-16T07:13:27;12.40;99.90
12130;DHT22;6128;59.340;18.040;2023-04-16T07:15:54;12.50;99.90
12130;DHT22;6128;59.340;18.040;2023-04-16T07:18:21;12.60;99.90
12130;DHT22;6128;59.340;18.040;2023-04-16T07:20:48;12.60;99.90
12130;DHT22;6128;59.340;18.040;2023-04-16T07:23:16;12.80;99.90
12130;DHT22;6128;59.340;18.040;2023-04-16T07:25:43;12.50;99.90
12130;DHT22;6128;59.340;18.040;2023-04-16T07:28:10;12.40;99.90
12130;DHT22;6128;59.340;18.040;2023-04-16T07:30:37;12.80;99.90
12130;DHT22;6128;59.340;18.040;2023-04-16T07:33:05;13.30;99.90
12130;DHT22;6128;59.340;18.040;2023-04-16T07:35:32;13.70;99.90
12130;DHT22;6128;59.340;18.040;2023-04-16T07:37:59;13.10;99.90
12130;DHT22;6128;59.340;18.040;2023-04-16T07:40:27;13.50;99.90
12130;DHT22;6128;59.340;18.040;2023-04-16T07:42:56;13.90;99.90
12130;DHT22;6128;59.340;18.040;2023-04-16T07:45:23;14.10;99.90
12130;DHT22;6128;59.340;18.040;2023-04-16T07:47:50;13.50;99.90
12130;DHT22;6128;59.340;18.040;2023-04-16T07:50:17;12.40;99.90
12130;DHT22;6128;59.340;18.040;2023-04-16T07:52:45;12.10;99.90
12130;DHT22;6128;59.340;18.040;2023-04-16T07:55:13;12.10;99.90
12130;DHT22;6128;59.340;18.040;2023-04-16T07:57:41;11.80;99.80
12130;DHT22;6128;59.340;18.040;2023-04-16T08:00:10;11.60;99.80
12130;DHT22;6128;59.340;18.040;2023-04-16T08:02:37;11.80;99.80
12130;DHT22;6128;59.340;18.040;2023-04-16T08:05:05;11.60;99.60
12130;DHT22;6128;59.340;18.040;2023-04-16T08:07:32;11.10;99.40
12130;DHT22;6128;59.340;18.040;2023-04-16T08:10:00;11.00;99.10
12130;DHT22;6128;59.340;18.040;2023-04-16T08:12:28;11.20;98.90
12130;DHT22;6128;59.340;18.040;2023-04-16T08:15:00;11.20;98.60
12130;DHT22;6128;59.340;18.040;2023-04-16T08:17:27;11.10;98.40
12130;DHT22;6128;59.340;18.040;2023-04-16T08:19:54;10.60;98.10
12130;DHT22;6128;59.340;18.040;2023-04-16T08:22:22;10.20;97.90
12130;DHT22;6128;59.340;18.040;2023-04-16T08:24:51;10.50;97.70
12130;DHT22;6128;59.340;18.040;2023-04-16T08:27:18;10.70;97.50
12130;DHT22;6128;59.340;18.040;2023-04-16T08:29:46;11.00;97.40
12130;DHT22;6128;59.340;18.040;2023-04-16T08:32:15;10.70;97.10
12130;DHT22;6128;59.340;18.040;2023-04-16T08:34:42;10.70;96.90
12130;DHT22;6128;59.340;18.040;2023-04-16T08:37:09;10.40;96.80
12130;DHT22;6128;59.340;18.040;2023-04-16T08:39:36;10.60;96.70
12130;DHT22;6128;59.340;18.040;2023-04-16T08:42:04;10.70;96.40
12130;DHT22;6128;59.340;18.040;2023-04-16T08:44:34;11.00;96.20
12130;DHT22;6128;59.340;18.040;2023-04-16T08:47:06;11.10;96.20
12130;DHT22;6128;59.340;18.040;2023-04-16T08:49:41;11.50;96.40
12130;DHT22;6128;59.340;18.040;2023-04-16T08:52:13;12.10;96.40
12130;DHT22;6128;59.340;18.040;2023-04-16T08:54:47;12.60;96.40
12130;DHT22;6128;59.340;18.040;2023-04-16T08:57:18;12.30;96.40
12130;DHT22;6128;59.340;18.040;2023-04-16T08:59:45;12.10;96.00
12130;DHT22;6128;59.340;18.040;2023-04-16T09:02:13;11.80;95.50
12130;DHT22;6128;59.340;18.040;2023-04-16T09:04:42;11.80;95.40
12130;DHT22;6128;59.340;18.040;2023-04-16T09:07:11;12.20;95.20
12130;DHT22;6128;59.340;18.040;2023-04-16T09:09:39;13.20;95.40
12130;DHT22;6128;59.340;18.040;2023-04-16T09:12:06;13.80;96.00
12130;DHT22;6128;59.340;18.040;2023-04-16T09:14:34;14.30;96.60
12130;DHT22;6128;59.340;18.040;2023-04-16T09:17:03;14.90;96.80
12130;DHT22;6128;59.340;18.040;2023-04-16T09:19:32;13.90;96.70
12130;DHT22;6128;59.340;18.040;2023-04-16T09:22:00;12.80;95.40
12130;DHT22;6128;59.340;18.040;2023-04-16T09:24:28;12.00;94.50
12130;DHT22;6128;59.340;18.040;2023-04-16T09:26:56;11.60;93.80
12130;DHT22;6128;59.340;18.040;2023-04-16T09:29:42;11.20;93.20
12130;DHT22;6128;59.340;18.040;2023-04-16T09:32:26;10.80;92.60
12130;DHT22;6128;59.340;18.040;2023-04-16T09:35:01;10.60;92.40
12130;DHT22;6128;59.340;18.040;2023-04-16T09:37:30;10.20;91.90
12130;DHT22;6128;59.340;18.040;2023-04-16T09:39:58;10.20;91.70
12130;DHT22;6128;59.340;18.040;2023-04-16T09:42:27;10.30;91.60
12130;DHT22;6128;59.340;18.040;2023-04-16T09:44:54;10.20;91.50
12130;DHT22;6128;59.340;18.040;2023-04-16T09:47:22;10.10;91.40
12130;DHT22;6128;59.340;18.040;2023-04-16T09:49:49;10.10;91.30
12130;DHT22;6128;59.340;18.040;2023-04-16T09:52:17;10.10;91.20
12130;DHT22;6128;59.340;18.040;2023-04-16T09:54:47;10.10;91.20
12130;DHT22;6128;59.340;18.040;2023-04-16T09:57:17;10.10;91.10
12130;DHT22;6128;59.340;18.040;2023-04-16T09:59:47;10.10;91.10
12130;DHT22;6128;59.340;18.040;2023-04-16T10:02:14;10.20;91.10
12130;DHT22;6128;59.340;18.040;2023-04-16T10:04:47;10.30;91.10
12130;DHT22;6128;59.340;18.040;2023-04-16T10:07:15;10.40;91.10
12130;DHT22;6128;59.340;18.040;2023-04-16T10:09:43;10.50;91.10
12130;DHT22;6128;59.340;18.040;2023-04-16T10:12:11;10.50;91.20
12130;DHT22;6128;59.340;18.040;2023-04-16T10:14:39;10.60;91.20
12130;DHT22;6128;59.340;18.040;2023-04-16T10:17:06;10.70;91.10
12130;DHT22;6128;59.340;18.040;2023-04-16T10:19:34;10.80;91.00
12130;DHT22;6128;59.340;18.040;2023-04-16T10:22:02;10.80;91.00
12130;DHT22;6128;59.340;18.040;2023-04-16T10:24:30;10.90;90.90
12130;DHT22;6128;59.340;18.040;2023-04-16T10:26:58;11.00;90.90
12130;DHT22;6128;59.340;18.040;2023-04-16T10:29:28;11.00;90.80
12130;DHT22;6128;59.340;18.040;2023-04-16T10:31:56;11.10;90.80
12130;DHT22;6128;59.340;18.040;2023-04-16T10:34:23;11.10;90.90
12130;DHT22;6128;59.340;18.040;2023-04-16T10:36:52;11.10;90.90
12130;DHT22;6128;59.340;18.040;2023-04-16T10:39:21;11.10;90.70
12130;DHT22;6128;59.340;18.040;2023-04-16T10:41:48;11.20;90.70
12130;DHT22;6128;59.340;18.040;2023-04-16T10:44:17;11.30;90.50
12130;DHT22;6128;59.340;18.040;2023-04-16T10:46:47;11.30;90.20
12130;DHT22;6128;59.340;18.040;2023-04-16T10:49:16;11.40;89.90
12130;DHT22;6128;59.340;18.040;2023-04-16T10:51:52;11.50;89.70
12130;DHT22;6128;59.340;18.040;2023-04-16T10:54:23;11.60;88.70
12130;DHT22;6128;59.340;18.040;2023-04-16T10:56:52;11.60;88.50
12130;DHT22;6128;59.340;18.040;2023-04-16T10:59:21;11.60;88.40
12130;DHT22;6128;59.340;18.040;2023-04-16T11:01:50;11.70;88.30
12130;DHT22;6128;59.340;18.040;2023-04-16T11:04:32;11.70;88.00
12130;DHT22;6128;59.340;18.040;2023-04-16T11:07:01;11.80;87.60
12130;DHT22;6128;59.340;18.040;2023-04-16T11:09:46;11.80;87.70
12130;DHT22;6128;59.340;18.040;2023-04-16T11:12:17;11.90;82.20
12130;DHT22;6128;59.340;18.040;2023-04-16T11:14:47;11.80;82.40
12130;DHT22;6128;59.340;18.040;2023-04-16T11:17:16;11.80;83.10
12130;DHT22;6128;59.340;18.040;2023-04-16T11:19:43;11.90;83.30
12130;DHT22;6128;59.340;18.040;2023-04-16T11:22:15;11.80;83.20
12130;DHT22;6128;59.340;18.040;2023-04-16T11:24:43;11.50;80.70
12130;DHT22;6128;59.340;18.040;2023-04-16T11:27:14;11.50;80.50
12130;DHT22;6128;59.340;18.040;2023-04-16T11:29:41;11.60;80.00
12130;DHT22;6128;59.340;18.040;2023-04-16T11:32:09;11.80;80.30
12130;DHT22;6128;59.340;18.040;2023-04-16T11:34:44;11.90;81.10
12130;DHT22;6128;59.340;18.040;2023-04-16T11:37:11;12.10;81.00
12130;DHT22;6128;59.340;18.040;2023-04-16T11:39:47;12.10;81.40
12130;DHT22;6128;59.340;18.040;2023-04-16T11:42:18;12.20;81.10
12130;DHT22;6128;59.340;18.040;2023-04-16T11:44:50;12.30;80.90
12130;DHT22;6128;59.340;18.040;2023-04-16T11:47:18;12.40;80.60
12130;DHT22;6128;59.340;18.040;2023-04-16T11:49:47;12.50;80.80
12130;DHT22;6128;59.340;18.040;2023-04-16T11:52:24;12.40;80.30
12130;DHT22;6128;59.340;18.040;2023-04-16T11:54:52;12.40;80.20
12130;DHT22;6128;59.340;18.040;2023-04-16T11:57:24;12.30;80.10
12130;DHT22;6128;59.340;18.040;2023-04-16T11:59:51;12.30;80.10
12130;DHT22;6128;59.340;18.040;2023-04-16T12:02:34;12.30;79.70
12130;DHT22;6128;59.340;18.040;2023-04-16T12:05:03;12.30;78.60
12130;DHT22;6128;59.340;18.040;2023-04-16T12:07:31;12.30;78.60
12130;DHT22;6128;59.340;18.040;2023-04-16T12:10:05;12.50;78.50
12130;DHT22;6128;59.340;18.040;2023-04-16T12:12:33;12.50;78.00
12130;DHT22;6128;59.340;18.040;2023-04-16T12:15:01;12.60;77.80
12130;DHT22;6128;59.340;18.040;2023-04-16T12:17:30;12.50;77.50
12130;DHT22;6128;59.340;18.040;2023-04-16T12:19:59;12.50;77.70
12130;DHT22;6128;59.340;18.040;2023-04-16T12:22:28;12.50;77.30
12130;DHT22;6128;59.340;18.040;2023-04-16T12:24:58;12.40;76.80
12130;DHT22;6128;59.340;18.040;2023-04-16T12:27:25;12.30;76.40
12130;DHT22;6128;59.340;18.040;2023-04-16T12:30:06;12.30;76.30
12130;DHT22;6128;59.340;18.040;2023-04-16T12:32:33;12.20;74.70
12130;DHT22;6128;59.340;18.040;2023-04-16T12:35:00;12.20;74.60
12130;DHT22;6128;59.340;18.040;2023-04-16T12:37:29;12.10;74.40
12130;DHT22;6128;59.340;18.040;2023-04-16T12:39:56;12.20;74.00
12130;DHT22;6128;59.340;18.040;2023-04-16T12:42:24;12.20;72.20
12130;DHT22;6128;59.340;18.040;2023-04-16T12:44:51;12.10;71.80
12130;DHT22;6128;59.340;18.040;2023-04-16T12:47:18;12.10;71.50
12130;DHT22;6128;59.340;18.040;2023-04-16T12:49:45;12.20;72.30
12130;DHT22;6128;59.340;18.040;2023-04-16T12:52:12;12.10;72.10
12130;DHT22;6128;59.340;18.040;2023-04-16T12:54:40;12.00;72.30
12130;DHT22;6128;59.340;18.040;2023-04-16T12:57:07;12.00;71.40
12130;DHT22;6128;59.340;18.040;2023-04-16T12:59:34;12.10;71.10
12130;DHT22;6128;59.340;18.040;2023-04-16T13:02:01;12.20;71.50
12130;DHT22;6128;59.340;18.040;2023-04-16T13:04:28;12.20;68.10
12130;DHT22;6128;59.340;18.040;2023-04-16T13:06:56;12.10;68.80
12130;DHT22;6128;59.340;18.040;2023-04-16T13:09:23;12.20;69.20
12130;DHT22;6128;59.340;18.040;2023-04-16T13:11:52;12.20;69.60
12130;DHT22;6128;59.340;18.040;2023-04-16T13:14:19;12.30;70.70
12130;DHT22;6128;59.340;18.040;2023-04-16T13:16:46;12.30;70.70
12130;DHT22;6128;59.340;18.040;2023-04-16T13:19:13;12.30;70.90
12130;DHT22;6128;59.340;18.040;2023-04-16T13:21:43;12.20;70.80
12130;DHT22;6128;59.340;18.040;2023-04-16T13:24:10;12.20;70.40
12130;DHT22;6128;59.340;18.040;2023-04-16T13:26:38;12.00;69.90
12130;DHT22;6128;59.340;18.040;2023-04-16T13:29:06;12.00;69.50
12130;DHT22;6128;59.340;18.040;2023-04-16T13:31:33;12.00;69.40
12130;DHT22;6128;59.340;18.040;2023-04-16T13:34:01;12.00;69.10
12130;DHT22;6128;59.340;18.040;2023-04-16T13:36:29;12.00;68.90
12130;DHT22;6128;59.340;18.040;2023-04-16T13:38:57;12.00;68.90
12130;DHT22;6128;59.340;18.040;2023-04-16T13:41:24;12.00;68.60
12130;DHT22;6128;59.340;18.040;2023-04-16T13:43:52;11.90;68.50
12130;DHT22;6128;59.340;18.040;2023-04-16T13:46:20;11.80;68.20
12130;DHT22;6128;59.340;18.040;2023-04-16T13:48:47;11.80;67.80
12130;DHT22;6128;59.340;18.040;2023-04-16T13:51:14;11.90;67.80
12130;DHT22;6128;59.340;18.040;2023-04-16T13:53:41;11.90;67.50
12130;DHT22;6128;59.340;18.040;2023-04-16T13:56:09;11.90;67.60
12130;DHT22;6128;59.340;18.040;2023-04-16T13:58:36;11.90;67.60
12130;DHT22;6128;59.340;18.040;2023-04-16T14:01:04;11.80;67.50
12130;DHT22;6128;59.340;18.040;2023-04-16T14:03:32;11.80;67.60
12130;DHT22;6128;59.340;18.040;2023-04-16T14:06:00;11.80;67.10
12130;DHT22;6128;59.340;18.040;2023-04-16T14:08:28;11.80;67.10
12130;DHT22;6128;59.340;18.040;2023-04-16T14:10:56;11.70;66.90
12130;DHT22;6128;59.340;18.040;2023-04-16T14:13:24;11.60;66.70
12130;DHT22;6128;59.340;18.040;2023-04-16T14:15:52;11.50;66.60
12130;DHT22;6128;59.340;18.040;2023-04-16T14:18:20;11.50;66.30
12130;DHT22;6128;59.340;18.040;2023-04-16T14:20:48;11.50;66.20
12130;DHT22;6128;59.340;18.040;2023-04-16T14:23:15;11.40;66.10
12130;DHT22;6128;59.340;18.040;2023-04-16T14:25:42;11.50;65.90
12130;DHT22;6128;59.340;18.040;2023-04-16T14:28:09;11.40;65.90
12130;DHT22;6128;59.340;18.040;2023-04-16T14:30:37;11.40;65.90
12130;DHT22;6128;59.340;18.040;2023-04-16T14:33:04;11.40;65.90
12130;DHT22;6128;59.340;18.040;2023-04-16T14:35:31;11.40;65.90
12130;DHT22;6128;59.340;18.040;2023-04-16T14:38:00;11.30;65.50
12130;DHT22;6128;59.340;18.040;2023-04-16T14:40:28;11.30;65.40
12130;DHT22;6128;59.340;18.040;2023-04-16T14:42:55;11.30;65.60
12130;DHT22;6128;59.340;18.040;2023-04-16T14:45:23;11.30;65.60
12130;DHT22;6128;59.340;18.040;2023-04-16T14:47:54;11.40;65.80
12130;DHT22;6128;59.340;18.040;2023-04-16T14:50:21;11.40;66.00
12130;DHT22;6128;59.340;18.040;2023-04-16T14:52:49;11.40;66.50
12130;DHT22;6128;59.340;18.040;2023-04-16T14:55:19;11.40;66.90
12130;DHT22;6128;59.340;18.040;2023-04-16T14:57:47;11.40;66.90
12130;DHT22;6128;59.340;18.040;2023-04-16T15:00:14;11.40;67.20
12130;DHT22;6128;59.340;18.040;2023-04-16T15:02:43;11.30;67.20
12130;DHT22;6128;59.340;18.040;2023-04-16T15:05:10;11.30;67.20
12130;DHT22;6128;59.340;18.040;2023-04-16T15:07:37;11.40;67.20
12130;DHT22;6128;59.340;18.040;2023-04-16T15:10:06;11.40;67.10
12130;DHT22;6128;59.340;18.040;2023-04-16T15:12:34;11.40;67.10
12130;DHT22;6128;59.340;18.040;2023-04-16T15:15:01;11.40;67.20
12130;DHT22;6128;59.340;18.040;2023-04-16T15:17:28;11.40;67.00
12130;DHT22;6128;59.340;18.040;2023-04-16T15:19:56;11.30;67.10
12130;DHT22;6128;59.340;18.040;2023-04-16T15:22:23;11.30;67.10
12130;DHT22;6128;59.340;18.040;2023-04-16T15:25:03;11.30;67.20
12130;DHT22;6128;59.340;18.040;2023-04-16T15:27:45;11.30;67.30
12130;DHT22;6128;59.340;18.040;2023-04-16T15:30:13;11.20;67.20
12130;DHT22;6128;59.340;18.040;2023-04-16T15:32:40;11.30;67.60
12130;DHT22;6128;59.340;18.040;2023-04-16T15:35:09;11.20;67.80
12130;DHT22;6128;59.340;18.040;2023-04-16T15:37:36;11.20;67.80
12130;DHT22;6128;59.340;18.040;2023-04-16T15:40:04;11.20;68.00
12130;DHT22;6128;59.340;18.040;2023-04-16T15:42:32;11.10;68.00